Strona główna
METAR-TAF:

METAR-TAF

Lotnisko :

Port lotniczy Banjarmasin

Banjarmasin, Indonezja

Szerokość geograficzna: 03-26-32S, Długość geograficzna: 114-45-45E, wysokość: 20 m

Aktualna obserwacja pogody

Raport powstał 11 godziny i 52 minut temu, godzina 02:00 UTC
Wiatr 5 kt od północny wschód, zmienny między północ i wschód
Temperatura 29°C
Wilgotność 84%
Ciśnienie 1012 hPa
Widzialność 10 km lub więcej

METAR: WAOO 010200Z AUTO 05005KT 360V080 9999 NCD 29/26 Q1012 NOSIG

czas: 20:52 (13:52 UTC)

Prognoza

Raport powstał 8 godziny i 52 minut temu, godzina 05:00 UTC
Prognoza ważna od 01 godzina 06 UTC do 02 godzina 06 UTC
Wiatr 6 kt od północny wschód
Widzialność 10 km lub więcej
Rozproszone chmury na wysokości 1800 ft
Przejściowo
od 01 godzina 06 UTC do 01 godzina 10 UTC
Widzialność: 6000 m
Mało chmury na wysokości 1800 ft, Cumulonimbus.
burza, deszcz

TAF: WAOO 010500Z 0106/0206 05006KT 9999 SCT018 TEMPO 0106/0110 6000 TSRA FEW018CB

Obserwacja i prognoza pogody dla ponad 4000 lotnisk (raport METAR i TAF).

Dostępne stacje oznaczono żółtymi i czerwonymi punktami na mapie.

Najedź kursorem aby zobaczyć nazwę stacji.

Kliknij aby zobaczyć obserwacje i prognozy pogody.

Aby zmienić mapę: kliknij na zielony przycisk z czarnym krzyżykiem, aby powiększyć; na zielony przycisk z myślnikiem, aby pomniejszyć; na zielone strzałki, aby przejść do map sąsiednich.


METAR-TAF: